Time;durP1;ratioP1;P1;durP2;ratioP2;P2;SDS_P1;SDS_P2;PMS_P1;PMS_P2;Temp;Humidity;BMP_temperature;BMP_pressure;BME280_temperature;BME280_humidity;BME280_pressure;Samples;Min_cycle;Max_cycle;Signal;HPM_P1;HPM_P2
2021/09/01 00:00:09;;;;;;;13.80;9.32;;;;;;;18.02;100.00;96981.22;5088006;28;20067;-65
2021/09/01 00:02:36;;;;;;;15.95;10.13;;;;;;;17.87;100.00;96962.22;5086085;28;20055;-63
2021/09/01 00:05:04;;;;;;;13.55;9.95;;;;;;;17.35;100.00;96902.00;5087479;28;20080;-65
2021/09/01 00:07:31;;;;;;;12.27;9.38;;;;;;;17.78;100.00;96967.53;5087315;28;20090;-63
2021/09/01 00:09:58;;;;;;;15.00;8.98;;;;;;;17.70;100.00;96968.84;5086069;28;20442;-63
2021/09/01 00:12:24;;;;;;;12.70;8.18;;;;;;;17.67;100.00;96955.69;5087563;28;20054;-63
2021/09/01 00:14:51;;;;;;;11.52;9.25;;;;;;;17.69;100.00;96956.03;5088000;28;20059;-64
2021/09/01 00:17:18;;;;;;;11.38;8.57;;;;;;;17.73;100.00;96963.19;5086486;28;20450;-64
2021/09/01 00:19:44;;;;;;;10.55;8.02;;;;;;;17.75;100.00;96976.78;5087046;28;20056;-63
2021/09/01 00:22:13;;;;;;;12.85;8.05;;;;;;;17.75;100.00;96971.19;5085459;28;20055;-63
2021/09/01 00:24:41;;;;;;;11.10;7.85;;;;;;;17.84;100.00;96979.88;5087549;28;20052;-64
2021/09/01 00:27:07;;;;;;;8.98;7.43;;;;;;;17.84;100.00;96977.06;5087278;28;20051;-64
2021/09/01 00:29:36;;;;;;;11.27;7.78;;;;;;;17.85;100.00;96981.44;5087373;28;20055;-63
2021/09/01 00:32:04;;;;;;;11.23;8.57;;;;;;;17.74;100.00;96963.97;5087561;28;20431;-63
2021/09/01 00:34:31;;;;;;;9.57;8.57;;;;;;;17.27;100.00;96889.28;5087178;28;20657;-64
2021/09/01 00:36:57;;;;;;;10.95;8.02;;;;;;;17.92;100.00;96978.56;5086735;28;20055;-64
2021/09/01 00:39:24;;;;;;;11.60;8.75;;;;;;;17.98;100.00;96974.09;5086926;28;20051;-64
2021/09/01 00:41:51;;;;;;;10.32;8.32;;;;;;;18.03;100.00;96977.22;5085614;28;20430;-64
2021/09/01 00:44:27;;;;;;;12.50;8.52;;;;;;;18.04;100.00;96975.19;5086391;28;20064;-63
2021/09/01 00:46:55;;;;;;;12.32;8.38;;;;;;;18.00;100.00;96971.66;5086881;28;20044;-64
2021/09/01 00:49:23;;;;;;;11.98;8.50;;;;;;;17.46;100.00;96911.09;5086422;28;20483;-64
2021/09/01 00:51:50;;;;;;;10.63;8.27;;;;;;;17.84;100.00;96971.47;5085602;28;20058;-63
2021/09/01 00:54:19;;;;;;;12.45;8.65;;;;;;;17.77;100.00;96974.34;5086804;28;20437;-63
2021/09/01 00:56:52;;;;;;;10.52;8.45;;;;;;;17.80;100.00;96968.69;5085227;28;20048;-64
2021/09/01 00:59:26;;;;;;;10.68;8.90;;;;;;;17.63;100.00;96963.31;5086671;28;20048;-63
2021/09/01 01:01:55;;;;;;;11.13;8.98;;;;;;;17.67;100.00;96969.69;5086207;28;20048;-63
2021/09/01 01:04:25;;;;;;;15.00;9.00;;;;;;;17.67;100.00;96964.09;5085219;28;20124;-63
2021/09/01 01:06:54;;;;;;;11.60;8.55;;;;;;;17.69;100.00;96970.03;5086099;28;20599;-64
2021/09/01 01:09:21;;;;;;;10.55;8.85;;;;;;;17.61;100.00;96957.31;5086371;28;20048;-64
2021/09/01 01:12:21;;;;;;;14.02;8.77;;;;;;;17.60;100.00;96970.56;5086259;28;20070;-64
2021/09/01 01:14:51;;;;;;;12.68;8.90;;;;;;;17.54;100.00;96966.63;5081545;28;20074;-62
2021/09/01 01:17:20;;;;;;;11.07;8.93;;;;;;;17.51;100.00;96966.66;5085976;28;20525;-63
2021/09/01 01:19:48;;;;;;;12.77;9.25;;;;;;;17.48;100.00;96967.50;5085930;28;20577;-63
2021/09/01 01:22:18;;;;;;;12.18;10.27;;;;;;;17.39;100.00;96964.34;5085942;28;20134;-63
2021/09/01 01:24:58;;;;;;;13.77;9.20;;;;;;;17.30;100.00;96962.06;5084080;28;20055;-64
2021/09/01 01:27:26;;;;;;;12.95;10.00;;;;;;;17.41;100.00;96964.72;5086254;28;20142;-63
2021/09/01 01:29:54;;;;;;;17.35;9.77;;;;;;;17.35;100.00;96964.41;5085826;28;20059;-63
2021/09/01 01:32:21;;;;;;;12.32;8.98;;;;;;;17.20;100.00;96954.56;5085963;28;20044;-63
2021/09/01 01:34:48;;;;;;;12.57;8.98;;;;;;;16.92;100.00;96940.03;5085836;28;20067;-63
2021/09/01 01:37:15;;;;;;;11.02;7.95;;;;;;;16.95;100.00;96958.81;5086076;28;20070;-64
2021/09/01 01:39:41;;;;;;;13.93;8.65;;;;;;;17.03;100.00;96951.94;5084197;28;20059;-64
2021/09/01 01:42:08;;;;;;;9.85;7.80;;;;;;;16.97;100.00;96956.41;5085430;28;20581;-64
2021/09/01 01:44:35;;;;;;;10.48;8.48;;;;;;;16.85;100.00;96942.94;5083981;28;20548;-63
2021/09/01 01:47:02;;;;;;;12.50;8.48;;;;;;;16.45;100.00;96897.69;5085362;28;20510;-63
2021/09/01 01:49:30;;;;;;;9.05;7.70;;;;;;;16.92;100.00;96974.44;5085680;28;20513;-64
2021/09/01 01:51:57;;;;;;;9.75;7.70;;;;;;;16.95;100.00;96967.19;5085269;28;20052;-64
2021/09/01 01:54:24;;;;;;;11.23;7.90;;;;;;;17.02;100.00;96967.16;5084387;28;20055;-64
2021/09/01 01:56:51;;;;;;;12.98;7.53;;;;;;;16.92;100.00;96962.44;5084222;28;20048;-63
2021/09/01 01:59:17;;;;;;;8.13;7.20;;;;;;;16.83;100.00;96948.13;5085482;28;20048;-64
2021/09/01 02:01:44;;;;;;;11.40;7.25;;;;;;;16.89;100.00;96963.25;5083322;28;20051;-64
2021/09/01 02:04:11;;;;;;;10.73;8.00;;;;;;;16.95;100.00;96958.81;5083691;28;20437;-64
2021/09/01 02:06:38;;;;;;;8.77;6.30;;;;;;;17.13;100.00;96956.63;5085481;28;20048;-63
2021/09/01 02:09:05;;;;;;;6.93;6.28;;;;;;;16.79;100.00;96913.81;5084998;28;20052;-64
2021/09/01 02:11:33;;;;;;;7.63;6.50;;;;;;;16.51;100.00;96884.06;5085368;28;20048;-63
2021/09/01 02:13:59;;;;;;;8.30;7.40;;;;;;;16.93;100.00;96964.03;5079984;28;20059;-62
2021/09/01 02:16:26;;;;;;;8.50;6.57;;;;;;;17.01;100.00;96965.56;5064437;28;20049;-64
2021/09/01 02:18:53;;;;;;;10.82;6.57;;;;;;;16.76;100.00;96959.38;5064550;28;20055;-62
2021/09/01 02:21:20;;;;;;;10.48;6.90;;;;;;;16.92;100.00;96956.84;5064312;28;20061;-64
2021/09/01 02:23:46;;;;;;;8.35;6.75;;;;;;;16.98;100.00;96955.16;5064467;28;20464;-63
2021/09/01 02:26:13;;;;;;;8.65;7.43;;;;;;;16.90;100.00;96959.28;5064691;28;20048;-64
2021/09/01 02:28:40;;;;;;;10.60;6.38;;;;;;;16.98;100.00;96960.78;5064532;28;20063;-64
2021/09/01 02:31:06;;;;;;;8.32;6.88;;;;;;;15.98;100.00;96809.00;5064383;28;20057;-63
2021/09/01 02:33:33;;;;;;;9.27;7.10;;;;;;;16.94;100.00;96954.44;5064241;28;20596;-64
2021/09/01 02:36:00;;;;;;;9.57;7.20;;;;;;;16.83;100.00;96953.72;5064234;28;20057;-63
2021/09/01 02:38:26;;;;;;;8.57;6.97;;;;;;;16.86;100.00;96964.09;5063081;28;20056;-63
2021/09/01 02:40:53;;;;;;;7.90;6.18;;;;;;;16.83;100.00;96960.13;5064306;28;20066;-62
2021/09/01 02:43:21;;;;;;;7.38;6.55;;;;;;;16.91;100.00;96955.25;5063771;28;20515;-65
2021/09/01 02:45:48;;;;;;;9.52;6.90;;;;;;;16.92;100.00;96956.84;5064148;28;20060;-64
2021/09/01 02:48:15;;;;;;;9.32;6.65;;;;;;;16.79;100.00;96936.19;5062743;28;20048;-64
2021/09/01 02:50:42;;;;;;;14.27;6.82;;;;;;;16.91;100.00;96966.44;5062792;28;20044;-63
2021/09/01 02:53:09;;;;;;;7.47;6.72;;;;;;;16.90;100.00;96970.47;5063601;28;20058;-63
2021/09/01 02:55:35;;;;;;;9.40;6.65;;;;;;;16.92;100.00;96968.03;5064250;28;20059;-63
2021/09/01 02:58:02;;;;;;;8.15;6.85;;;;;;;17.08;100.00;96965.47;5063921;28;20519;-63
2021/09/01 03:00:29;;;;;;;10.38;6.72;;;;;;;16.98;100.00;96932.78;5063788;28;20056;-63
2021/09/01 03:02:56;;;;;;;7.28;6.50;;;;;;;17.26;100.00;96980.13;5060033;28;20458;-63
2021/09/01 03:05:23;;;;;;;8.57;6.18;;;;;;;17.28;100.00;96980.47;5063643;28;20107;-63
2021/09/01 03:07:50;;;;;;;9.40;6.30;;;;;;;17.27;98.93;96984.50;5063780;28;20060;-63
2021/09/01 03:10:17;;;;;;;8.27;6.95;;;;;;;16.71;100.00;96901.09;5064158;28;20135;-64
2021/09/01 03:12:44;;;;;;;9.98;6.72;;;;;;;16.81;100.00;96939.34;5063695;28;20517;-63
2021/09/01 03:15:11;;;;;;;11.02;6.82;;;;;;;16.93;100.00;96947.25;5078431;28;20059;-63
2021/09/01 03:17:37;;;;;;;8.52;7.10;;;;;;;15.18;100.00;96676.38;5082813;28;20541;-63
2021/09/01 03:20:05;;;;;;;10.88;7.00;;;;;;;17.12;100.00;96988.66;5083572;28;20055;-63
2021/09/01 03:22:32;;;;;;;8.82;6.80;;;;;;;17.05;100.00;96983.09;5082126;28;20044;-63
2021/09/01 03:24:58;;;;;;;11.13;7.43;;;;;;;17.15;100.00;96985.78;5082268;28;20058;-63
2021/09/01 03:27:25;;;;;;;8.75;7.20;;;;;;;17.05;100.00;96989.50;5083940;28;20048;-63
2021/09/01 03:29:52;;;;;;;15.00;7.97;;;;;;;17.11;100.00;96990.66;5084183;28;20052;-63
2021/09/01 03:32:19;;;;;;;9.43;7.03;;;;;;;17.02;100.00;97000.72;5084053;28;20048;-65
2021/09/01 03:34:45;;;;;;;8.50;7.43;;;;;;;17.10;100.00;96986.28;5084264;28;20063;-63
2021/09/01 03:37:12;;;;;;;10.43;8.00;;;;;;;16.95;100.00;96973.59;5082379;28;20048;-63
2021/09/01 03:39:39;;;;;;;10.05;7.38;;;;;;;17.07;100.00;96997.50;5083810;28;20052;-63
2021/09/01 03:42:06;;;;;;;10.55;6.53;;;;;;;17.02;100.00;97006.31;5083760;28;20044;-65
2021/09/01 03:44:33;;;;;;;10.13;7.70;;;;;;;16.69;100.00;96981.81;5084112;28;20480;-64
2021/09/01 03:46:59;;;;;;;8.30;7.20;;;;;;;16.78;100.00;97002.53;5083707;28;20419;-65
2021/09/01 03:49:26;;;;;;;9.55;8.38;;;;;;;16.85;100.00;97010.06;5082110;28;20063;-65
2021/09/01 03:51:53;;;;;;;9.15;8.13;;;;;;;16.33;100.00;96926.13;5082022;28;20043;-61
2021/09/01 03:54:19;;;;;;;13.55;8.77;;;;;;;16.77;100.00;97003.72;5083020;28;20052;-63
2021/09/01 03:56:46;;;;;;;11.13;8.20;;;;;;;16.79;100.00;96997.75;5083077;28;20067;-62
2021/09/01 03:59:13;;;;;;;14.63;8.10;;;;;;;16.60;100.00;96969.09;5083763;28;20429;-65
2021/09/01 04:01:40;;;;;;;12.52;8.18;;;;;;;16.72;100.00;96986.59;5083724;28;20056;-64
2021/09/01 04:04:07;;;;;;;11.80;7.72;;;;;;;16.48;100.00;96972.41;5083137;28;20048;-64
2021/09/01 04:06:34;;;;;;;11.57;7.90;;;;;;;16.17;100.00;96945.41;5082822;28;20450;-62
2021/09/01 04:09:01;;;;;;;9.68;7.78;;;;;;;16.63;100.00;97018.63;5083398;28;20063;-63
2021/09/01 04:11:28;;;;;;;9.77;7.53;;;;;;;16.69;100.00;97021.78;5083876;28;20887;-64
2021/09/01 04:13:55;;;;;;;9.45;6.75;;;;;;;16.66;100.00;97033.00;5083471;28;20055;-61
2021/09/01 04:16:22;;;;;;;11.68;7.93;;;;;;;16.68;100.00;97052.97;5083383;28;20058;-63
2021/09/01 04:18:49;;;;;;;11.48;8.43;;;;;;;16.38;100.00;96984.41;5083854;28;20485;-63
2021/09/01 04:21:15;;;;;;;12.60;9.23;;;;;;;16.51;100.00;96988.34;5081585;28;20063;-63
2021/09/01 04:23:42;;;;;;;11.45;8.75;;;;;;;16.84;100.00;97033.66;5082811;28;20052;-63
2021/09/01 04:26:09;;;;;;;9.93;7.22;;;;;;;16.61;100.00;96993.06;5086596;28;20074;-62
2021/09/01 04:28:35;;;;;;;10.75;6.80;;;;;;;16.81;100.00;97012.09;5087159;28;20047;-63
2021/09/01 04:31:02;;;;;;;9.13;6.95;;;;;;;16.68;100.00;96991.44;5085489;28;20522;-63
2021/09/01 04:33:29;;;;;;;11.05;8.32;;;;;;;17.16;100.00;97034.19;5085803;28;20055;-62
2021/09/01 04:35:56;;;;;;;11.57;7.00;;;;;;;16.52;100.00;96936.78;5086619;28;20056;-64
2021/09/01 04:38:23;;;;;;;11.95;8.95;;;;;;;17.10;100.00;97019.06;5086897;28;20051;-65
2021/09/01 04:40:49;;;;;;;11.07;7.15;;;;;;;16.90;99.90;96992.84;5085158;28;20143;-63
2021/09/01 04:43:16;;;;;;;12.18;6.68;;;;;;;17.26;99.42;97038.91;5085658;28;20060;-62
2021/09/01 04:45:43;;;;;;;11.57;7.60;;;;;;;17.20;99.70;97037.75;5086752;28;20059;-65
2021/09/01 04:48:09;;;;;;;9.27;7.05;;;;;;;17.33;100.00;97027.63;5087063;28;20055;-63
2021/09/01 04:50:36;;;;;;;12.90;7.20;;;;;;;16.52;98.87;96889.25;5085029;28;20044;-60
2021/09/01 04:53:03;;;;;;;244.23;22.02;;;;;;;17.62;97.68;97028.97;5070168;28;20055;-62
2021/09/01 04:55:30;;;;;;;22.33;7.72;;;;;;;17.90;94.81;97034.25;5065452;28;20063;-61
2021/09/01 04:57:56;;;;;;;9.02;6.78;;;;;;;18.11;92.58;97028.38;5074513;28;20541;-62
2021/09/01 05:00:23;;;;;;;9.02;6.63;;;;;;;17.79;92.12;96983.13;5084852;28;20076;-63
2021/09/01 05:02:50;;;;;;;9.85;6.72;;;;;;;18.10;91.69;97009.97;5084606;28;20484;-61
2021/09/01 05:05:17;;;;;;;12.75;7.18;;;;;;;18.65;91.52;97035.66;5085439;28;20427;-63
2021/09/01 05:07:43;;;;;;;7.28;5.80;;;;;;;18.94;87.96;97036.03;5085701;28;20518;-65
2021/09/01 05:10:10;;;;;;;9.15;6.45;;;;;;;18.87;87.45;96992.03;5075824;28;20052;-61
2021/09/01 05:12:37;;;;;;;10.20;6.90;;;;;;;19.31;86.25;97036.66;5066139;28;20048;-64
2021/09/01 05:15:05;;;;;;;9.02;6.38;;;;;;;19.49;83.30;97031.50;5073610;28;20109;-62
2021/09/01 05:17:32;;;;;;;11.18;6.65;;;;;;;19.62;82.55;97031.66;5085551;28;20055;-63
2021/09/01 05:19:58;;;;;;;8.98;6.55;;;;;;;19.60;82.19;97028.47;5039475;28;20062;-63
2021/09/01 05:22:30;;;;;;;12.88;6.40;;;;;;;19.87;80.41;97036.84;5085365;28;20556;-63
2021/09/01 05:25:07;;;;;;;11.45;6.95;;;;;;;20.02;80.16;97026.88;5086260;28;20051;-62
2021/09/01 05:27:45;;;;;;;9.05;5.80;;;;;;;20.14;79.53;97020.66;5085409;28;20052;-62
2021/09/01 05:30:14;;;;;;;9.38;6.22;;;;;;;20.23;79.38;97009.59;5084618;28;20056;-62
2021/09/01 05:32:47;;;;;;;8.30;6.07;;;;;;;20.24;80.41;97011.19;5083667;28;20302;-64
2021/09/01 05:35:14;;;;;;;11.10;6.70;;;;;;;18.31;80.03;96675.97;5085619;28;20504;-64
2021/09/01 05:37:41;;;;;;;10.00;6.40;;;;;;;20.42;82.05;97011.59;5085502;28;20537;-62
2021/09/01 05:40:10;;;;;;;8.43;6.10;;;;;;;20.42;82.63;97005.97;5085881;28;20075;-62
2021/09/01 05:42:37;;;;;;;11.43;6.72;;;;;;;20.58;81.75;97003.97;5085642;28;20403;-63
2021/09/01 05:45:06;;;;;;;9.90;6.53;;;;;;;20.73;81.34;97001.63;5085565;28;20063;-62
2021/09/01 05:47:33;;;;;;;7.90;6.18;;;;;;;20.69;81.88;96992.47;5085576;28;20067;-65
2021/09/01 05:50:01;;;;;;;9.38;6.35;;;;;;;20.93;81.58;96999.53;5086238;28;20105;-63
2021/09/01 05:52:27;;;;;;;8.90;5.97;;;;;;;20.85;80.36;96989.66;5084151;28;20535;-62
2021/09/01 05:54:57;;;;;;;10.38;6.47;;;;;;;21.05;80.05;96996.06;5085324;28;20433;-63
2021/09/01 05:57:36;;;;;;;59.38;38.58;;;;;;;21.20;79.61;96988.81;5084909;28;20055;-63
2021/09/01 06:00:16;;;;;;;12.45;8.15;;;;;;;21.38;78.10;96985.53;5083787;28;20048;-64
2021/09/01 06:03:14;;;;;;;9.35;6.50;;;;;;;21.14;77.88;96984.16;5065333;28;20080;-68
2021/09/01 06:05:44;;;;;;;10.35;6.15;;;;;;;21.01;78.68;96992.50;5052063;28;20077;-62
2021/09/01 06:08:13;;;;;;;9.27;6.70;;;;;;;20.73;80.14;96993.19;5072733;28;20056;-63
2021/09/01 06:10:40;;;;;;;8.63;6.28;;;;;;;20.48;80.38;96953.56;5089465;28;20130;-71
2021/09/01 06:13:09;;;;;;;7.50;5.93;;;;;;;20.91;79.88;96993.56;5083861;28;20051;-68
2021/09/01 06:15:38;;;;;;;8.82;6.22;;;;;;;21.09;78.64;96993.16;5073239;28;20049;-67
2021/09/01 06:18:07;;;;;;;6.97;5.65;;;;;;;20.59;79.78;96892.19;5065376;28;20058;-64
2021/09/01 06:20:35;;;;;;;10.05;6.20;;;;;;;20.65;78.75;96921.38;5066237;28;20056;-69
2021/09/01 06:23:03;;;;;;;7.78;5.43;;;;;;;21.47;78.06;96992.13;5071276;28;20054;-61
2021/09/01 06:25:29;;;;;;;15.38;6.65;;;;;;;21.78;74.58;96987.66;5082304;28;20056;-69
2021/09/01 06:27:57;;;;;;;13.25;6.25;;;;;;;22.05;73.94;96985.28;5065690;28;20519;-60
2021/09/01 06:30:24;;;;;;;10.32;6.32;;;;;;;22.22;72.30;96983.19;5065716;28;20056;-65
2021/09/01 06:32:51;;;;;;;8.88;6.30;;;;;;;22.12;70.23;96965.34;5084968;28;20047;-60
2021/09/01 06:35:18;;;;;;;10.75;6.40;;;;;;;22.52;67.22;96981.91;5083197;28;20048;-62
2021/09/01 06:37:46;;;;;;;7.15;5.07;;;;;;;22.55;65.69;96981.00;5081960;28;20048;-67
2021/09/01 06:40:14;;;;;;;7.65;5.38;;;;;;;22.69;65.83;96989.03;5083140;28;20461;-70
2021/09/01 06:42:41;;;;;;;8.13;5.65;;;;;;;21.60;62.23;96854.84;5078434;28;20623;-69
2021/09/01 06:45:10;;;;;;;8.43;5.63;;;;;;;22.10;62.67;96900.09;5063699;28;20056;-58
2021/09/01 06:47:38;;;;;;;7.93;5.32;;;;;;;;;;5064404;28;20041;-67
2021/09/01 06:50:05;;;;;;;7.63;5.50;;;;;;;23.03;62.00;96966.56;5061478;28;20041;-65
2021/09/01 06:52:32;;;;;;;7.38;5.80;;;;;;;23.31;61.34;96983.38;5081094;28;20059;-57
2021/09/01 06:54:58;;;;;;;6.75;5.35;;;;;;;22.91;61.20;96897.50;5074176;28;20499;-59
2021/09/01 06:57:26;;;;;;;6.60;6.00;;;;;;;23.72;59.59;96990.84;5079166;28;20097;-63
2021/09/01 06:59:52;;;;;;;6.70;6.03;;;;;;;23.41;56.84;96907.91;5083777;28;20074;-68
2021/09/01 07:02:19;;;;;;;6.75;5.72;;;;;;;23.77;56.94;96987.44;5076725;28;20151;-62
2021/09/01 07:04:46;;;;;;;16.25;10.05;;;;;;;23.64;55.01;96939.38;5073928;28;20055;-60
2021/09/01 07:07:13;;;;;;;7.13;6.53;;;;;;;23.75;53.46;96939.00;5072413;28;20139;-64
2021/09/01 07:09:39;;;;;;;6.18;5.68;;;;;;;24.12;53.32;96980.50;5062143;28;20564;-60
2021/09/01 07:12:06;;;;;;;8.88;6.20;;;;;;;24.31;51.80;96990.69;5064148;28;20054;-62
2021/09/01 07:14:33;;;;;;;6.38;5.78;;;;;;;24.47;51.76;96984.81;5063986;28;20469;-67
2021/09/01 07:17:00;;;;;;;8.27;6.60;;;;;;;24.61;52.34;96980.66;5061748;28;20056;-61
2021/09/01 07:19:27;;;;;;;6.30;5.80;;;;;;;24.79;52.28;96984.38;5065400;28;20078;-65
2021/09/01 07:21:53;;;;;;;8.38;5.93;;;;;;;24.43;53.03;96933.19;5074125;28;20502;-64
2021/09/01 07:24:20;;;;;;;8.98;6.15;;;;;;;24.75;53.01;96980.91;5083191;28;20055;-60
2021/09/01 07:26:47;;;;;;;6.57;5.88;;;;;;;24.47;52.98;96939.47;5082533;28;20054;-61
2021/09/01 07:29:13;;;;;;;8.63;6.68;;;;;;;24.88;54.07;96987.25;5082115;28;20044;-62
2021/09/01 07:31:40;;;;;;;11.23;8.00;;;;;;;24.02;50.60;96924.28;5079448;28;20052;-65
2021/09/01 07:34:07;;;;;;;16.88;12.40;;;;;;;24.57;51.09;96983.59;5067659;28;20048;-58
2021/09/01 07:36:33;;;;;;;8.80;7.57;;;;;;;24.75;50.83;96978.06;5073223;28;20044;-60
2021/09/01 07:39:00;;;;;;;7.03;6.35;;;;;;;24.80;52.84;96985.19;5062101;28;20052;-65
2021/09/01 07:41:27;;;;;;;8.25;6.78;;;;;;;24.99;50.92;96984.00;5063464;28;20503;-60
2021/09/01 07:43:54;;;;;;;6.50;5.82;;;;;;;24.42;50.47;96976.91;5070592;28;20047;-62
2021/09/01 07:46:20;;;;;;;6.68;5.97;;;;;;;24.26;51.20;96948.81;5076279;28;20048;-58
2021/09/01 07:48:47;;;;;;;6.93;5.70;;;;;;;24.80;50.90;96951.94;5077459;28;20052;-62
2021/09/01 07:51:14;;;;;;;8.95;6.25;;;;;;;24.88;50.03;96907.13;5064247;28;20048;-63
2021/09/01 07:53:42;;;;;;;8.82;7.63;;;;;;;25.28;51.58;96971.00;5078166;28;20051;-60
2021/09/01 07:56:08;;;;;;;7.40;6.30;;;;;;;25.30;48.16;96968.50;5065810;28;20048;-59
2021/09/01 07:58:35;;;;;;;6.22;5.63;;;;;;;25.11;48.23;96921.50;5073437;28;20131;-64
2021/09/01 08:01:02;;;;;;;6.93;6.22;;;;;;;25.52;49.62;96939.22;5086358;28;20071;-60
2021/09/01 08:03:32;;;;;;;4.97;4.45;;;;;;;25.46;44.02;96955.31;5087094;28;20281;-61
2021/09/01 08:06:00;;;;;;;7.18;4.70;;;;;;;24.42;46.75;96877.00;5074678;28;20450;-61
2021/09/01 08:08:26;;;;;;;6.75;5.50;;;;;;;24.77;46.50;96855.75;5063206;28;20054;-63
2021/09/01 08:10:53;;;;;;;6.45;4.60;;;;;;;25.43;46.78;96970.44;5064881;28;20052;-62
2021/09/01 08:13:20;;;;;;;4.32;3.92;;;;;;;24.76;46.05;96951.31;5065763;28;20045;-63
2021/09/01 08:15:46;;;;;;;6.45;3.75;;;;;;;24.72;44.35;96955.53;5065170;28;20044;-62
2021/09/01 08:18:13;;;;;;;4.82;3.80;;;;;;;25.00;44.75;96949.50;5065102;28;20493;-62
2021/09/01 08:20:44;;;;;;;6.07;4.22;;;;;;;24.97;43.77;96949.66;5064904;28;20058;-63
2021/09/01 08:23:11;;;;;;;4.57;4.25;;;;;;;25.43;42.81;96942.06;5081289;28;20079;-63
2021/09/01 08:25:38;;;;;;;4.28;3.97;;;;;;;25.57;43.81;96947.91;5066543;28;20048;-60
2021/09/01 08:28:05;;;;;;;4.30;3.90;;;;;;;25.21;43.05;96942.94;5066744;28;20048;-64
2021/09/01 08:30:32;;;;;;;4.70;4.30;;;;;;;25.48;42.80;96941.44;5065166;28;20278;-62
2021/09/01 08:32:59;;;;;;;6.30;4.68;;;;;;;25.79;41.34;96947.75;5067152;28;20056;-63
2021/09/01 08:35:26;;;;;;;5.90;4.35;;;;;;;25.67;41.61;96946.63;5066109;28;20048;-62
2021/09/01 08:37:53;;;;;;;5.25;4.80;;;;;;;25.60;43.29;96940.50;5066623;28;20052;-63
2021/09/01 08:40:20;;;;;;;4.70;4.30;;;;;;;26.06;42.05;96944.94;5081584;28;20052;-66
2021/09/01 08:42:47;;;;;;;4.05;3.75;;;;;;;23.00;42.13;96544.41;5066911;28;20918;-61
2021/09/01 08:45:14;;;;;;;5.00;4.30;;;;;;;24.16;43.19;96783.00;5077340;28;20052;-67
2021/09/01 08:47:40;;;;;;;5.45;4.95;;;;;;;24.98;42.91;96922.88;5076899;28;20043;-64
2021/09/01 08:50:10;;;;;;;7.63;6.43;;;;;;;25.57;44.34;96935.78;5075310;28;20131;-62
2021/09/01 08:52:38;;;;;;;6.85;5.90;;;;;;;26.06;42.83;96939.25;5064953;28;20047;-67
2021/09/01 08:55:07;;;;;;;5.22;4.40;;;;;;;26.50;40.67;96932.69;5067894;28;20059;-62
2021/09/01 08:57:34;;;;;;;28.90;20.13;;;;;;;24.61;41.39;96630.13;5079824;28;20433;-65
2021/09/01 09:00:04;;;;;;;6.28;5.75;;;;;;;26.74;40.84;96870.25;5083751;28;20056;-65
2021/09/01 09:02:30;;;;;;;5.53;5.03;;;;;;;26.74;39.81;96858.88;5068210;28;20059;-64
2021/09/01 09:04:58;;;;;;;5.65;4.97;;;;;;;27.42;39.80;96891.97;5070623;28;20052;-65
2021/09/01 09:07:26;;;;;;;6.53;4.82;;;;;;;27.95;39.50;96909.09;5076869;28;20133;-59
2021/09/01 09:09:53;;;;;;;6.32;5.70;;;;;;;27.97;39.02;96880.94;5078222;28;20053;-62
2021/09/01 09:12:32;;;;;;;6.30;5.80;;;;;;;27.97;38.86;96864.63;5063370;28;20272;-60
2021/09/01 09:14:58;;;;;;;5.88;5.47;;;;;;;28.54;37.45;96907.09;5068767;28;20442;-61
2021/09/01 09:17:35;;;;;;;7.20;5.57;;;;;;;28.75;38.22;96909.56;5066277;28;20048;-62
2021/09/01 09:20:06;;;;;;;5.35;4.85;;;;;;;28.34;37.54;96912.69;5071186;28;20130;-60
2021/09/01 09:22:39;;;;;;;5.47;3.42;;;;;;;26.76;39.72;96912.41;5073860;28;20423;-60
2021/09/01 09:25:19;;;;;;;4.40;4.00;;;;;;;26.47;41.25;96904.44;5072894;28;20068;-59
2021/09/01 09:27:59;;;;;;;3.90;3.60;;;;;;;25.37;42.23;96887.22;5073598;28;20048;-61
2021/09/01 09:30:41;;;;;;;17.75;4.07;;;;;;;24.67;44.74;96891.78;5074863;28;20072;-65
2021/09/01 09:33:21;;;;;;;4.38;3.50;;;;;;;24.62;45.70;96915.03;5069153;28;20482;-60
2021/09/01 09:36:00;;;;;;;6.22;5.35;;;;;;;24.62;45.49;96871.72;5065112;28;20511;-63
2021/09/01 09:38:47;;;;;;;3.90;3.60;;;;;;;24.52;46.52;96896.41;5070010;28;20052;-59
2021/09/01 09:41:20;;;;;;;6.75;3.85;;;;;;;24.72;47.21;96905.31;5067105;28;20055;-59
2021/09/01 09:44:03;;;;;;;3.70;3.40;;;;;;;24.90;46.52;96894.03;5075322;28;20158;-59
2021/09/01 09:46:44;;;;;;;4.03;3.63;;;;;;;25.09;46.88;96901.34;5072429;28;20067;-63
2021/09/01 09:49:11;;;;;;;4.00;3.70;;;;;;;25.35;46.11;96906.75;5071725;28;20106;-62
2021/09/01 09:51:41;;;;;;;3.83;3.35;;;;;;;25.04;45.64;96859.41;5063953;28;20408;-61
2021/09/01 09:54:28;;;;;;;4.10;3.80;;;;;;;25.52;45.74;96893.84;5067728;28;20144;-63
2021/09/01 09:57:13;;;;;;;7.50;5.70;;;;;;;25.17;45.18;96800.53;5076664;28;20044;-63
2021/09/01 09:59:44;;;;;;;5.43;4.82;;;;;;;24.97;45.78;96845.56;5064696;28;20579;-57
2021/09/01 10:02:10;;;;;;;3.80;3.50;;;;;;;25.19;44.22;96815.03;5075121;28;20048;-63
2021/09/01 10:04:38;;;;;;;4.13;3.45;;;;;;;25.71;43.22;96886.91;5082825;28;20451;-57
2021/09/01 10:07:04;;;;;;;4.68;4.15;;;;;;;25.49;42.65;96855.06;5070560;28;20047;-59
2021/09/01 10:09:31;;;;;;;4.30;3.90;;;;;;;24.72;43.83;96814.63;5073320;28;20048;-61
2021/09/01 10:11:58;;;;;;;5.80;5.22;;;;;;;25.46;44.70;96873.84;5079506;28;20541;-57
2021/09/01 10:14:25;;;;;;;5.53;4.97;;;;;;;25.09;44.68;96702.88;5072876;28;20067;-67
2021/09/01 10:16:59;;;;;;;8.10;4.72;;;;;;;26.31;45.43;96813.91;5068531;28;20047;-64
2021/09/01 10:19:29;;;;;;;12.18;7.97;;;;;;;26.35;45.21;96854.31;5078764;28;20438;-66
2021/09/01 10:22:06;;;;;;;6.80;4.60;;;;;;;26.85;42.87;96859.16;5068833;28;20056;-60
2021/09/01 10:24:43;;;;;;;5.68;5.18;;;;;;;25.37;42.23;96652.59;5077804;28;20044;-70
2021/09/01 10:27:11;;;;;;;5.82;4.57;;;;;;;27.19;42.42;96850.06;5070959;28;20052;-65
2021/09/01 10:29:46;;;;;;;5.00;4.60;;;;;;;27.25;41.88;96845.28;5070296;28;20049;-59
2021/09/01 10:32:15;;;;;;;4.90;4.10;;;;;;;26.26;41.58;96837.28;5075247;28;20577;-59
2021/09/01 10:34:42;;;;;;;6.75;6.00;;;;;;;26.37;43.22;96844.03;5071944;28;20056;-66
2021/09/01 10:37:09;;;;;;;7.03;5.13;;;;;;;26.38;42.40;96824.94;5080861;28;20059;-59
2021/09/01 10:39:38;;;;;;;6.55;5.50;;;;;;;27.02;43.39;96834.69;5069213;28;20052;-65
2021/09/01 10:42:42;;;;;;;6.82;5.20;;;;;;;27.64;41.28;96818.44;5065476;28;20059;-59
2021/09/01 10:45:13;;;;;;;5.43;5.00;;;;;;;27.32;42.63;96813.66;5077848;28;20122;-61
2021/09/01 10:47:54;;;;;;;5.13;4.63;;;;;;;27.62;40.86;96820.97;5075157;28;20050;-59
2021/09/01 10:50:30;;;;;;;4.85;4.45;;;;;;;28.10;39.03;96816.72;5068120;28;20048;-64
2021/09/01 10:53:00;;;;;;;4.30;3.90;;;;;;;27.32;39.88;96813.66;5066932;28;20047;-68
2021/09/01 10:55:27;;;;;;;4.55;4.15;;;;;;;26.41;42.15;96829.66;5072385;28;20051;-62
2021/09/01 10:58:21;;;;;;;4.05;3.72;;;;;;;26.06;42.41;96817.16;5078085;28;20055;-69
2021/09/01 11:00:54;;;;;;;3.35;3.05;;;;;;;25.99;42.35;96817.44;5066316;28;20060;-59
2021/09/01 11:03:25;;;;;;;4.23;3.63;;;;;;;25.26;43.15;96763.66;5070366;28;20143;-65
2021/09/01 11:05:52;;;;;;;3.95;3.65;;;;;;;25.82;41.86;96807.72;5072725;28;20503;-69
2021/09/01 11:08:19;;;;;;;3.20;3.00;;;;;;;25.22;42.40;96771.56;5062766;28;20123;-67
2021/09/01 11:10:57;;;;;;;3.63;3.33;;;;;;;25.16;42.26;96753.59;5062198;28;20055;-69
2021/09/01 11:13:43;;;;;;;4.13;3.83;;;;;;;25.75;43.09;96808.06;5065557;28;20056;-60
2021/09/01 11:16:20;;;;;;;3.45;3.15;;;;;;;23.16;42.29;96383.09;5078513;28;20050;-60
2021/09/01 11:19:00;;;;;;;4.03;3.70;;;;;;;25.70;43.49;96803.03;5074894;28;20196;-59
2021/09/01 11:21:29;;;;;;;4.20;3.58;;;;;;;25.58;42.01;96818.16;5069234;28;20053;-68
2021/09/01 11:23:57;;;;;;;5.60;4.07;;;;;;;25.99;40.88;96808.94;5063550;28;20045;-63
2021/09/01 11:26:32;;;;;;;5.32;3.90;;;;;;;26.38;40.73;96802.22;5068466;28;20048;-57
2021/09/01 11:29:04;;;;;;;3.90;3.47;;;;;;;26.05;40.79;96770.16;5066387;28;20064;-67
2021/09/01 11:31:32;;;;;;;3.13;2.92;;;;;;;25.80;40.53;96779.81;5068914;28;20044;-60
2021/09/01 11:34:00;;;;;;;3.42;3.13;;;;;;;26.31;39.17;96813.91;5078415;28;20051;-67